LHSM Airport Information

Runway Information
Runway 16 Length 8202 ft width 197 ft
Elevation 408 ft Threshold 0 ft Heading 165
Runway 34 Length 8202 ft Width 197 ft
Elevation 399 ft Threshold 0 ft Heading 345
Runway 17R Length 3100 ft width 212 ft
Elevation 0 ft Threshold 0 ft Heading 167
Runway 35L Length 3100 ft Width 212 ft
Elevation 0 ft Threshold 0 ft Heading 347
Airport Frequencies
Type AFIS Name INFO Frequency 127.6 MHZ
Type TWR Name TWR Frequency 127.6 MHZ
Airport Navaids
Type NDB Name Sarmellek Frequency 428 KHZ
Airport Weather Information & NOTAM
ADDS - METARS form results

(1040 UTC 21 April 2019)
Data provider http://aviationweather.gov/metar/data/
 
METAR text: LHSM 211015Z 35003KT CAVOK 21/01 Q1022 NOSIG
Conditions at: LHSM (BALATON , HU) observed 1015 UTC 21 April 2019
Temperature: 21.0°C (70°F)
Dewpoint: 1.0°C (34°F) [RH = 26%]
Pressure (altimeter): 30.18 inches Hg (1022.0 mb)
Winds: from the N (350 degrees) at 3 MPH (3 knots; 1.5 m/s)
Visibility: 6 or more miles (10+ km)
Ceiling: ceiling and visibility are OK
Clouds: unknown
Weather: no significant weather observed at this time

METAR text: LHSM 210945Z 21005KT CAVOK 20/02 Q1022 NOSIG
Conditions at: LHSM (BALATON , HU) observed 0945 UTC 21 April 2019
Temperature: 20.0°C (68°F)
Dewpoint: 2.0°C (36°F) [RH = 30%]
Pressure (altimeter): 30.18 inches Hg (1022.0 mb)
Winds: from the SSW (210 degrees) at 6 MPH (5 knots; 2.6 m/s)
Visibility: 6 or more miles (10+ km)
Ceiling: ceiling and visibility are OK
Clouds: unknown
Weather: no significant weather observed at this time

Forecast for: LHSM (BALATON , HU)
Text: TAF LHSM 210815Z 2109/2118 VRB02KT CAVOK
Forecast period: 0900 to 1800 UTC 21 April 2019
Forecast type: FROM: standard forecast or significant change
Winds: variable direction winds at 2 MPH (2 knots; 1.0 m/s)
Visibility: 6 or more miles 10+ km)
Ceiling: unknown
Clouds: missing
Weather: NSW  (no significant weather)
Text: TEMPO 2109/2116 27006KT
Forecast period: 0900 to 1600 UTC 21 April 2019
Forecast type: TEMPORARY: The following changes expected for less than half the time period
Winds: from the W (270 degrees) at 7 MPH (6 knots; 3.1 m/s)
Visibility: missing
Ceiling: unknown
Clouds: missing
Weather: no significant weather forecast for this period